This is the latest recevied weather packets stored in our database for station/object EA1GLE. If no packets are shown the sender has not sent any weather packets the latest 10 day(s).
| Time | Temp. | Humidity | Pressure | Rain* | Wind** | Luminosity | Snow |
|---|---|---|---|---|---|---|---|
| 1777922823 | 8.33° C | 98% | 1015.5 hPa | 0.51 mm | - | 0 W/m² | - |
| 1777919223 | 8.33° C | 97% | 1014.8 hPa | 0 mm | - | 11 W/m² | - |
| 1777918684 | 8.33° C | 97% | 1014.5 hPa | 0 mm | - | 17 W/m² | - |
| 1777911618 | 12.22° C | 78% | 1014.1 hPa | 0 mm | - | 74 W/m² | - |
| 1777909637 | 12.78° C | 74% | 1014.2 hPa | 0 mm | - | 302 W/m² | - |
| 1777904823 | 11.11° C | 87% | 1014.7 hPa | 0.76 mm | - | 158 W/m² | - |
| 1777898703 | 8.89° C | 99% | 1015.3 hPa | 2.29 mm | - | 405 W/m² | - |
| 1777897623 | 8.89° C | 99% | 1015.5 hPa | 4.32 mm | - | 102 W/m² | - |
| 1777892403 | 10.56° C | 86% | 1015.3 hPa | 0 mm | - | 146 W/m² | - |
| 1777892044 | 10.56° C | 86% | 1015.5 hPa | 0 mm | - | 139 W/m² | - |
| 1777884304 | 10° C | 95% | 1015.1 hPa | 0 mm | - | 123 W/m² | - |
| 1777880703 | 9.44° C | 99% | 1014.8 hPa | 0 mm | - | 188 W/m² | - |
| 1777879083 | 9.44° C | 99% | 1014.8 hPa | 0 mm | - | 87 W/m² | - |
| 1777878137 | 9.44° C | 99% | 1014.9 hPa | 0 mm | - | 71 W/m² | - |
| 1777877103 | 8.89° C | 99% | 1014.6 hPa | 0 mm | - | 52 W/m² | - |
| 1777875483 | 9.44° C | 99% | 1014.7 hPa | 0 mm | - | 38 W/m² | - |
| 1777874404 | 8.89° C | 99% | 1014.4 hPa | 0 mm | - | 25 W/m² | - |
| 1777872963 | 8.89° C | 99% | 1014.2 hPa | 0 mm | - | 20 W/m² | - |
| 1777868823 | 8.89° C | 99% | 1014 hPa | 0 mm | - | 0 W/m² | - |
| 1777860543 | 8.89° C | 99% | 1014.3 hPa | 0 mm | - | 0 W/m² | - |
| 1777859644 | 8.89° C | 99% | 1014.6 hPa | 0 mm | - | 0 W/m² | - |
| 1777858023 | 8.89° C | 99% | 1014.6 hPa | 0 mm | - | 0 W/m² | - |
| 1777856179 | 8.89° C | 99% | 1014.7 hPa | 0 mm | - | 0 W/m² | - |
| 1777854423 | 8.89° C | 99% | 1014.8 hPa | 0 mm | - | 0 W/m² | - |
| 1777853343 | 8.33° C | 99% | 1014.6 hPa | 0 mm | - | 0 W/m² | - |
* Rain latest hour (hover to see other rain measurements)
** Current wind speed in m/s (hover to see current wind gust speed)